sensor_id;sensor_type;location;lat;lon;timestamp;P1;durP1;ratioP1;P2;durP2;ratioP2
40116;SDS011;25829;50.228;18.936;2022-08-20T00:03:00;11.40;;;8.30;;
40116;SDS011;25829;50.228;18.936;2022-08-20T00:06:15;12.32;;;8.27;;
40116;SDS011;25829;50.228;18.936;2022-08-20T00:09:19;13.35;;;7.50;;
40116;SDS011;25829;50.228;18.936;2022-08-20T00:12:19;12.52;;;8.43;;
40116;SDS011;25829;50.228;18.936;2022-08-20T00:15:22;9.40;;;7.55;;
40116;SDS011;25829;50.228;18.936;2022-08-20T00:18:28;9.48;;;7.80;;
40116;SDS011;25829;50.228;18.936;2022-08-20T00:21:29;12.40;;;8.40;;
40116;SDS011;25829;50.228;18.936;2022-08-20T00:24:30;10.73;;;8.18;;
40116;SDS011;25829;50.228;18.936;2022-08-20T00:27:32;11.25;;;9.20;;
40116;SDS011;25829;50.228;18.936;2022-08-20T00:30:34;13.93;;;9.05;;
40116;SDS011;25829;50.228;18.936;2022-08-20T00:33:36;11.65;;;10.15;;
40116;SDS011;25829;50.228;18.936;2022-08-20T00:36:37;11.07;;;9.15;;
40116;SDS011;25829;50.228;18.936;2022-08-20T00:39:38;13.52;;;9.43;;
40116;SDS011;25829;50.228;18.936;2022-08-20T00:42:40;13.77;;;9.90;;
40116;SDS011;25829;50.228;18.936;2022-08-20T00:45:42;11.98;;;9.00;;
40116;SDS011;25829;50.228;18.936;2022-08-20T00:48:44;14.38;;;9.63;;
40116;SDS011;25829;50.228;18.936;2022-08-20T00:52:20;16.30;;;9.25;;
40116;SDS011;25829;50.228;18.936;2022-08-20T00:55:18;9.55;;;8.20;;
40116;SDS011;25829;50.228;18.936;2022-08-20T00:58:22;14.52;;;9.20;;
40116;SDS011;25829;50.228;18.936;2022-08-20T01:01:23;12.02;;;9.48;;
40116;SDS011;25829;50.228;18.936;2022-08-20T01:04:26;10.00;;;8.93;;
40116;SDS011;25829;50.228;18.936;2022-08-20T01:07:29;15.07;;;10.15;;
40116;SDS011;25829;50.228;18.936;2022-08-20T01:10:37;13.27;;;9.20;;
40116;SDS011;25829;50.228;18.936;2022-08-20T01:13:40;18.02;;;10.35;;
40116;SDS011;25829;50.228;18.936;2022-08-20T01:16:42;19.00;;;9.65;;
40116;SDS011;25829;50.228;18.936;2022-08-20T01:19:48;16.42;;;9.77;;
40116;SDS011;25829;50.228;18.936;2022-08-20T01:26:30;11.98;;;9.38;;
40116;SDS011;25829;50.228;18.936;2022-08-20T01:29:37;15.88;;;9.75;;
40116;SDS011;25829;50.228;18.936;2022-08-20T01:32:39;11.00;;;9.20;;
40116;SDS011;25829;50.228;18.936;2022-08-20T01:35:41;11.63;;;9.45;;
40116;SDS011;25829;50.228;18.936;2022-08-20T01:38:43;12.18;;;8.45;;
40116;SDS011;25829;50.228;18.936;2022-08-20T01:45:14;13.75;;;9.20;;
40116;SDS011;25829;50.228;18.936;2022-08-20T01:48:15;12.23;;;9.88;;
40116;SDS011;25829;50.228;18.936;2022-08-20T01:51:19;12.82;;;9.05;;
40116;SDS011;25829;50.228;18.936;2022-08-20T01:54:24;18.27;;;9.10;;
40116;SDS011;25829;50.228;18.936;2022-08-20T01:57:26;11.18;;;8.70;;
40116;SDS011;25829;50.228;18.936;2022-08-20T02:00:28;13.25;;;9.13;;
40116;SDS011;25829;50.228;18.936;2022-08-20T02:03:29;14.13;;;9.85;;
40116;SDS011;25829;50.228;18.936;2022-08-20T02:06:31;11.00;;;9.90;;
40116;SDS011;25829;50.228;18.936;2022-08-20T02:09:37;16.77;;;10.05;;
40116;SDS011;25829;50.228;18.936;2022-08-20T02:12:39;10.13;;;9.13;;
40116;SDS011;25829;50.228;18.936;2022-08-20T02:15:40;13.00;;;10.52;;
40116;SDS011;25829;50.228;18.936;2022-08-20T02:18:41;14.77;;;11.77;;
40116;SDS011;25829;50.228;18.936;2022-08-20T02:21:43;19.60;;;11.07;;
40116;SDS011;25829;50.228;18.936;2022-08-20T02:24:46;14.68;;;11.70;;
40116;SDS011;25829;50.228;18.936;2022-08-20T02:27:47;17.40;;;11.27;;
40116;SDS011;25829;50.228;18.936;2022-08-20T02:30:50;14.75;;;11.07;;
40116;SDS011;25829;50.228;18.936;2022-08-20T02:33:52;13.88;;;10.43;;
40116;SDS011;25829;50.228;18.936;2022-08-20T02:36:53;14.98;;;12.00;;
40116;SDS011;25829;50.228;18.936;2022-08-20T02:39:54;18.23;;;10.95;;
40116;SDS011;25829;50.228;18.936;2022-08-20T02:42:55;13.40;;;10.98;;
40116;SDS011;25829;50.228;18.936;2022-08-20T02:45:56;17.45;;;11.30;;
40116;SDS011;25829;50.228;18.936;2022-08-20T02:48:57;18.63;;;11.18;;
40116;SDS011;25829;50.228;18.936;2022-08-20T02:51:58;14.13;;;10.20;;
40116;SDS011;25829;50.228;18.936;2022-08-20T02:54:59;19.58;;;11.15;;
40116;SDS011;25829;50.228;18.936;2022-08-20T02:58:00;14.85;;;11.00;;
40116;SDS011;25829;50.228;18.936;2022-08-20T03:01:01;15.02;;;10.93;;
40116;SDS011;25829;50.228;18.936;2022-08-20T03:04:05;15.35;;;10.68;;
40116;SDS011;25829;50.228;18.936;2022-08-20T03:07:06;17.55;;;10.57;;
40116;SDS011;25829;50.228;18.936;2022-08-20T03:10:07;14.95;;;10.43;;
40116;SDS011;25829;50.228;18.936;2022-08-20T03:13:08;17.48;;;10.38;;
40116;SDS011;25829;50.228;18.936;2022-08-20T03:16:13;13.63;;;11.02;;
40116;SDS011;25829;50.228;18.936;2022-08-20T03:19:14;13.77;;;10.27;;
40116;SDS011;25829;50.228;18.936;2022-08-20T03:22:15;15.13;;;11.63;;
40116;SDS011;25829;50.228;18.936;2022-08-20T03:25:16;15.98;;;10.55;;
40116;SDS011;25829;50.228;18.936;2022-08-20T03:28:17;16.40;;;10.25;;
40116;SDS011;25829;50.228;18.936;2022-08-20T03:31:19;11.63;;;9.73;;
40116;SDS011;25829;50.228;18.936;2022-08-20T03:34:20;11.38;;;10.05;;
40116;SDS011;25829;50.228;18.936;2022-08-20T03:37:20;19.65;;;11.50;;
40116;SDS011;25829;50.228;18.936;2022-08-20T03:40:26;16.33;;;10.63;;
40116;SDS011;25829;50.228;18.936;2022-08-20T03:43:28;15.52;;;10.65;;
40116;SDS011;25829;50.228;18.936;2022-08-20T03:46:30;16.65;;;10.77;;
40116;SDS011;25829;50.228;18.936;2022-08-20T03:49:31;13.10;;;9.93;;
40116;SDS011;25829;50.228;18.936;2022-08-20T03:52:31;16.90;;;10.20;;
40116;SDS011;25829;50.228;18.936;2022-08-20T03:55:32;16.75;;;10.10;;
40116;SDS011;25829;50.228;18.936;2022-08-20T03:58:33;14.43;;;10.27;;
40116;SDS011;25829;50.228;18.936;2022-08-20T04:01:34;13.65;;;10.48;;
40116;SDS011;25829;50.228;18.936;2022-08-20T04:04:35;15.43;;;10.43;;
40116;SDS011;25829;50.228;18.936;2022-08-20T04:07:35;12.48;;;10.15;;
40116;SDS011;25829;50.228;18.936;2022-08-20T04:10:37;15.02;;;10.55;;
40116;SDS011;25829;50.228;18.936;2022-08-20T04:13:38;12.20;;;10.50;;
40116;SDS011;25829;50.228;18.936;2022-08-20T04:16:39;15.88;;;10.30;;
40116;SDS011;25829;50.228;18.936;2022-08-20T04:19:40;12.57;;;9.98;;
40116;SDS011;25829;50.228;18.936;2022-08-20T04:22:41;11.68;;;9.93;;
40116;SDS011;25829;50.228;18.936;2022-08-20T04:25:42;15.13;;;10.20;;
40116;SDS011;25829;50.228;18.936;2022-08-20T04:28:43;13.00;;;9.90;;
40116;SDS011;25829;50.228;18.936;2022-08-20T04:31:44;13.98;;;10.18;;
40116;SDS011;25829;50.228;18.936;2022-08-20T04:34:44;12.93;;;10.32;;
40116;SDS011;25829;50.228;18.936;2022-08-20T04:37:45;11.45;;;9.75;;
40116;SDS011;25829;50.228;18.936;2022-08-20T04:40:47;14.65;;;9.45;;
40116;SDS011;25829;50.228;18.936;2022-08-20T04:43:56;13.27;;;10.15;;
40116;SDS011;25829;50.228;18.936;2022-08-20T04:46:57;19.30;;;11.20;;
40116;SDS011;25829;50.228;18.936;2022-08-20T04:49:58;12.75;;;10.48;;
40116;SDS011;25829;50.228;18.936;2022-08-20T04:53:00;13.60;;;10.30;;
40116;SDS011;25829;50.228;18.936;2022-08-20T04:56:02;15.60;;;10.02;;
40116;SDS011;25829;50.228;18.936;2022-08-20T04:59:04;10.75;;;9.65;;
40116;SDS011;25829;50.228;18.936;2022-08-20T05:02:06;13.75;;;10.18;;
40116;SDS011;25829;50.228;18.936;2022-08-20T05:05:07;13.90;;;10.02;;
40116;SDS011;25829;50.228;18.936;2022-08-20T05:08:09;16.75;;;10.43;;
40116;SDS011;25829;50.228;18.936;2022-08-20T05:11:12;12.07;;;10.00;;
40116;SDS011;25829;50.228;18.936;2022-08-20T05:14:13;13.27;;;10.32;;
40116;SDS011;25829;50.228;18.936;2022-08-20T05:17:15;14.98;;;10.38;;
40116;SDS011;25829;50.228;18.936;2022-08-20T05:20:16;11.65;;;10.23;;
40116;SDS011;25829;50.228;18.936;2022-08-20T05:23:19;17.10;;;11.13;;
40116;SDS011;25829;50.228;18.936;2022-08-20T05:26:20;14.63;;;10.88;;
40116;SDS011;25829;50.228;18.936;2022-08-20T05:29:22;19.33;;;12.20;;
40116;SDS011;25829;50.228;18.936;2022-08-20T05:32:23;18.40;;;10.88;;
40116;SDS011;25829;50.228;18.936;2022-08-20T05:35:24;13.65;;;10.05;;
40116;SDS011;25829;50.228;18.936;2022-08-20T05:38:27;15.07;;;11.07;;
40116;SDS011;25829;50.228;18.936;2022-08-20T05:41:28;15.50;;;10.95;;
40116;SDS011;25829;50.228;18.936;2022-08-20T05:44:30;16.05;;;11.15;;
40116;SDS011;25829;50.228;18.936;2022-08-20T05:47:30;16.23;;;11.57;;
40116;SDS011;25829;50.228;18.936;2022-08-20T05:50:31;14.70;;;12.73;;
40116;SDS011;25829;50.228;18.936;2022-08-20T05:53:32;15.88;;;11.88;;
40116;SDS011;25829;50.228;18.936;2022-08-20T05:56:33;15.48;;;12.10;;
40116;SDS011;25829;50.228;18.936;2022-08-20T05:59:35;16.52;;;11.93;;
40116;SDS011;25829;50.228;18.936;2022-08-20T06:02:39;19.00;;;12.57;;
40116;SDS011;25829;50.228;18.936;2022-08-20T06:05:58;17.45;;;12.25;;
40116;SDS011;25829;50.228;18.936;2022-08-20T06:09:00;17.25;;;12.25;;
40116;SDS011;25829;50.228;18.936;2022-08-20T06:12:02;15.80;;;12.93;;
40116;SDS011;25829;50.228;18.936;2022-08-20T06:15:05;16.02;;;12.43;;
40116;SDS011;25829;50.228;18.936;2022-08-20T06:18:07;17.67;;;12.38;;
40116;SDS011;25829;50.228;18.936;2022-08-20T06:21:09;17.08;;;12.73;;
40116;SDS011;25829;50.228;18.936;2022-08-20T06:24:09;16.05;;;13.32;;
40116;SDS011;25829;50.228;18.936;2022-08-20T06:27:12;15.55;;;13.52;;
40116;SDS011;25829;50.228;18.936;2022-08-20T06:30:14;15.93;;;13.82;;
40116;SDS011;25829;50.228;18.936;2022-08-20T06:33:16;18.52;;;12.57;;
40116;SDS011;25829;50.228;18.936;2022-08-20T06:36:17;17.65;;;13.75;;
40116;SDS011;25829;50.228;18.936;2022-08-20T06:39:18;17.58;;;13.30;;
40116;SDS011;25829;50.228;18.936;2022-08-20T06:42:19;20.55;;;13.35;;
40116;SDS011;25829;50.228;18.936;2022-08-20T06:45:21;20.65;;;13.88;;
40116;SDS011;25829;50.228;18.936;2022-08-20T06:48:25;20.88;;;13.30;;
40116;SDS011;25829;50.228;18.936;2022-08-20T06:51:26;17.38;;;12.63;;
40116;SDS011;25829;50.228;18.936;2022-08-20T06:54:27;16.85;;;12.07;;
40116;SDS011;25829;50.228;18.936;2022-08-20T06:57:28;15.23;;;12.07;;
40116;SDS011;25829;50.228;18.936;2022-08-20T07:00:29;16.00;;;11.25;;
40116;SDS011;25829;50.228;18.936;2022-08-20T07:03:32;18.80;;;11.82;;
40116;SDS011;25829;50.228;18.936;2022-08-20T07:06:33;15.27;;;10.77;;
40116;SDS011;25829;50.228;18.936;2022-08-20T07:09:34;14.40;;;10.80;;
40116;SDS011;25829;50.228;18.936;2022-08-20T07:12:35;17.50;;;10.38;;
40116;SDS011;25829;50.228;18.936;2022-08-20T07:15:35;12.23;;;8.85;;
40116;SDS011;25829;50.228;18.936;2022-08-20T07:18:37;13.23;;;8.60;;
40116;SDS011;25829;50.228;18.936;2022-08-20T07:21:38;14.40;;;8.90;;
40116;SDS011;25829;50.228;18.936;2022-08-20T07:24:39;12.07;;;7.45;;
40116;SDS011;25829;50.228;18.936;2022-08-20T07:27:40;12.05;;;8.25;;
40116;SDS011;25829;50.228;18.936;2022-08-20T07:30:42;14.35;;;7.75;;
40116;SDS011;25829;50.228;18.936;2022-08-20T07:34:01;13.38;;;7.90;;
40116;SDS011;25829;50.228;18.936;2022-08-20T07:37:02;10.80;;;7.68;;
40116;SDS011;25829;50.228;18.936;2022-08-20T07:40:04;13.40;;;7.70;;
40116;SDS011;25829;50.228;18.936;2022-08-20T07:43:05;10.45;;;8.82;;
40116;SDS011;25829;50.228;18.936;2022-08-20T07:46:06;12.98;;;9.40;;
40116;SDS011;25829;50.228;18.936;2022-08-20T07:49:08;14.38;;;9.35;;
40116;SDS011;25829;50.228;18.936;2022-08-20T07:52:09;10.52;;;6.78;;
40116;SDS011;25829;50.228;18.936;2022-08-20T07:55:10;10.43;;;6.82;;
40116;SDS011;25829;50.228;18.936;2022-08-20T07:58:13;9.18;;;7.25;;
40116;SDS011;25829;50.228;18.936;2022-08-20T08:01:18;10.10;;;6.22;;
40116;SDS011;25829;50.228;18.936;2022-08-20T08:04:20;7.63;;;6.32;;
40116;SDS011;25829;50.228;18.936;2022-08-20T08:07:23;9.50;;;6.07;;
40116;SDS011;25829;50.228;18.936;2022-08-20T08:10:26;9.38;;;6.40;;
40116;SDS011;25829;50.228;18.936;2022-08-20T08:13:29;10.27;;;6.53;;
40116;SDS011;25829;50.228;18.936;2022-08-20T08:16:33;10.05;;;6.97;;
40116;SDS011;25829;50.228;18.936;2022-08-20T08:19:36;10.80;;;6.55;;
40116;SDS011;25829;50.228;18.936;2022-08-20T08:22:40;9.65;;;6.35;;
40116;SDS011;25829;50.228;18.936;2022-08-20T08:25:44;10.05;;;6.10;;
40116;SDS011;25829;50.228;18.936;2022-08-20T08:28:46;10.75;;;6.82;;
40116;SDS011;25829;50.228;18.936;2022-08-20T08:31:47;10.60;;;7.07;;
40116;SDS011;25829;50.228;18.936;2022-08-20T08:34:48;7.13;;;5.80;;
40116;SDS011;25829;50.228;18.936;2022-08-20T08:37:48;8.63;;;5.90;;
40116;SDS011;25829;50.228;18.936;2022-08-20T08:40:50;8.43;;;5.20;;
40116;SDS011;25829;50.228;18.936;2022-08-20T08:43:53;7.95;;;6.35;;
40116;SDS011;25829;50.228;18.936;2022-08-20T08:47:17;9.32;;;6.03;;
40116;SDS011;25829;50.228;18.936;2022-08-20T08:50:27;14.40;;;6.00;;
40116;SDS011;25829;50.228;18.936;2022-08-20T08:53:35;10.15;;;6.28;;
40116;SDS011;25829;50.228;18.936;2022-08-20T08:56:38;8.68;;;6.15;;
40116;SDS011;25829;50.228;18.936;2022-08-20T08:59:39;10.18;;;6.80;;
40116;SDS011;25829;50.228;18.936;2022-08-20T09:02:52;10.30;;;6.68;;
40116;SDS011;25829;50.228;18.936;2022-08-20T09:06:07;9.88;;;7.15;;
40116;SDS011;25829;50.228;18.936;2022-08-20T09:09:18;8.82;;;6.50;;
40116;SDS011;25829;50.228;18.936;2022-08-20T09:12:22;9.73;;;6.85;;
40116;SDS011;25829;50.228;18.936;2022-08-20T09:15:26;10.68;;;7.40;;
40116;SDS011;25829;50.228;18.936;2022-08-20T09:18:27;11.30;;;6.22;;
40116;SDS011;25829;50.228;18.936;2022-08-20T09:21:28;13.02;;;6.97;;
40116;SDS011;25829;50.228;18.936;2022-08-20T09:24:29;13.68;;;7.43;;
40116;SDS011;25829;50.228;18.936;2022-08-20T09:27:29;10.75;;;6.93;;
40116;SDS011;25829;50.228;18.936;2022-08-20T09:30:31;10.80;;;6.78;;
40116;SDS011;25829;50.228;18.936;2022-08-20T09:33:32;8.27;;;7.03;;
40116;SDS011;25829;50.228;18.936;2022-08-20T09:36:32;9.38;;;6.95;;
40116;SDS011;25829;50.228;18.936;2022-08-20T09:39:34;8.95;;;7.00;;
40116;SDS011;25829;50.228;18.936;2022-08-20T09:42:36;9.30;;;7.18;;
40116;SDS011;25829;50.228;18.936;2022-08-20T09:45:38;10.95;;;7.13;;
40116;SDS011;25829;50.228;18.936;2022-08-20T09:48:38;12.15;;;7.05;;
40116;SDS011;25829;50.228;18.936;2022-08-20T09:51:39;10.73;;;6.72;;
40116;SDS011;25829;50.228;18.936;2022-08-20T09:54:40;11.35;;;7.18;;
40116;SDS011;25829;50.228;18.936;2022-08-20T09:57:41;11.63;;;7.10;;
40116;SDS011;25829;50.228;18.936;2022-08-20T10:00:42;9.63;;;7.05;;
40116;SDS011;25829;50.228;18.936;2022-08-20T10:03:43;9.23;;;6.72;;
40116;SDS011;25829;50.228;18.936;2022-08-20T10:06:48;11.85;;;8.32;;
40116;SDS011;25829;50.228;18.936;2022-08-20T10:09:49;12.73;;;7.38;;
40116;SDS011;25829;50.228;18.936;2022-08-20T10:12:49;12.93;;;8.30;;
40116;SDS011;25829;50.228;18.936;2022-08-20T10:15:50;13.05;;;7.47;;
40116;SDS011;25829;50.228;18.936;2022-08-20T10:18:51;13.10;;;7.90;;
40116;SDS011;25829;50.228;18.936;2022-08-20T10:21:53;14.27;;;9.27;;
40116;SDS011;25829;50.228;18.936;2022-08-20T10:24:54;14.30;;;8.80;;
40116;SDS011;25829;50.228;18.936;2022-08-20T10:27:54;10.52;;;8.60;;
40116;SDS011;25829;50.228;18.936;2022-08-20T10:30:56;17.10;;;8.45;;
40116;SDS011;25829;50.228;18.936;2022-08-20T10:33:56;10.18;;;7.80;;
40116;SDS011;25829;50.228;18.936;2022-08-20T10:36:57;13.25;;;8.55;;
40116;SDS011;25829;50.228;18.936;2022-08-20T10:39:58;11.50;;;8.23;;
40116;SDS011;25829;50.228;18.936;2022-08-20T10:42:59;15.00;;;8.20;;
40116;SDS011;25829;50.228;18.936;2022-08-20T10:46:01;11.43;;;8.07;;
40116;SDS011;25829;50.228;18.936;2022-08-20T10:49:02;9.52;;;7.10;;
40116;SDS011;25829;50.228;18.936;2022-08-20T10:52:03;12.02;;;7.57;;
40116;SDS011;25829;50.228;18.936;2022-08-20T10:55:05;12.50;;;7.53;;
40116;SDS011;25829;50.228;18.936;2022-08-20T10:58:07;11.18;;;7.25;;
40116;SDS011;25829;50.228;18.936;2022-08-20T11:01:08;11.57;;;7.15;;
40116;SDS011;25829;50.228;18.936;2022-08-20T11:04:09;13.13;;;7.20;;
40116;SDS011;25829;50.228;18.936;2022-08-20T11:10:29;11.45;;;6.47;;
40116;SDS011;25829;50.228;18.936;2022-08-20T11:13:33;11.68;;;6.40;;
40116;SDS011;25829;50.228;18.936;2022-08-20T11:16:34;16.15;;;6.50;;
40116;SDS011;25829;50.228;18.936;2022-08-20T11:19:39;11.75;;;6.80;;
40116;SDS011;25829;50.228;18.936;2022-08-20T11:22:43;10.88;;;7.10;;
40116;SDS011;25829;50.228;18.936;2022-08-20T11:25:43;14.27;;;7.15;;
40116;SDS011;25829;50.228;18.936;2022-08-20T11:28:44;13.85;;;7.47;;
40116;SDS011;25829;50.228;18.936;2022-08-20T11:31:45;14.20;;;8.00;;
40116;SDS011;25829;50.228;18.936;2022-08-20T11:34:46;12.65;;;7.40;;
40116;SDS011;25829;50.228;18.936;2022-08-20T11:37:47;15.88;;;8.27;;
40116;SDS011;25829;50.228;18.936;2022-08-20T11:40:49;12.05;;;7.88;;
40116;SDS011;25829;50.228;18.936;2022-08-20T11:43:50;13.70;;;8.20;;
40116;SDS011;25829;50.228;18.936;2022-08-20T11:46:51;13.90;;;8.05;;
40116;SDS011;25829;50.228;18.936;2022-08-20T11:49:59;15.65;;;8.02;;
40116;SDS011;25829;50.228;18.936;2022-08-20T11:53:05;12.57;;;7.93;;
40116;SDS011;25829;50.228;18.936;2022-08-20T11:56:05;13.65;;;7.22;;
40116;SDS011;25829;50.228;18.936;2022-08-20T11:59:06;10.48;;;7.85;;
40116;SDS011;25829;50.228;18.936;2022-08-20T12:02:07;15.02;;;8.40;;
40116;SDS011;25829;50.228;18.936;2022-08-20T12:05:08;13.27;;;7.72;;
40116;SDS011;25829;50.228;18.936;2022-08-20T12:08:11;16.35;;;7.47;;
40116;SDS011;25829;50.228;18.936;2022-08-20T12:11:13;12.07;;;7.70;;
40116;SDS011;25829;50.228;18.936;2022-08-20T12:14:14;10.30;;;7.20;;
40116;SDS011;25829;50.228;18.936;2022-08-20T12:17:19;13.98;;;7.63;;
40116;SDS011;25829;50.228;18.936;2022-08-20T12:20:23;11.80;;;7.57;;
40116;SDS011;25829;50.228;18.936;2022-08-20T12:23:27;10.00;;;7.82;;
40116;SDS011;25829;50.228;18.936;2022-08-20T12:26:27;13.90;;;8.43;;
40116;SDS011;25829;50.228;18.936;2022-08-20T12:29:31;16.98;;;9.20;;
40116;SDS011;25829;50.228;18.936;2022-08-20T12:32:35;13.63;;;7.88;;
40116;SDS011;25829;50.228;18.936;2022-08-20T12:35:36;17.08;;;8.98;;
40116;SDS011;25829;50.228;18.936;2022-08-20T12:38:37;13.40;;;8.00;;
40116;SDS011;25829;50.228;18.936;2022-08-20T12:41:37;12.35;;;8.27;;
40116;SDS011;25829;50.228;18.936;2022-08-20T12:44:38;14.95;;;8.65;;
40116;SDS011;25829;50.228;18.936;2022-08-20T12:47:41;12.23;;;8.40;;
40116;SDS011;25829;50.228;18.936;2022-08-20T12:50:43;14.63;;;7.88;;
40116;SDS011;25829;50.228;18.936;2022-08-20T12:53:45;12.70;;;8.35;;
40116;SDS011;25829;50.228;18.936;2022-08-20T12:56:46;13.65;;;8.65;;
40116;SDS011;25829;50.228;18.936;2022-08-20T12:59:47;17.85;;;8.23;;
40116;SDS011;25829;50.228;18.936;2022-08-20T13:02:48;13.57;;;8.55;;
40116;SDS011;25829;50.228;18.936;2022-08-20T13:05:50;14.77;;;9.20;;
40116;SDS011;25829;50.228;18.936;2022-08-20T13:08:50;15.68;;;8.85;;
40116;SDS011;25829;50.228;18.936;2022-08-20T13:11:51;11.55;;;8.57;;
40116;SDS011;25829;50.228;18.936;2022-08-20T13:14:52;15.68;;;8.63;;
40116;SDS011;25829;50.228;18.936;2022-08-20T13:17:53;14.88;;;8.02;;
40116;SDS011;25829;50.228;18.936;2022-08-20T13:20:55;12.63;;;7.07;;
40116;SDS011;25829;50.228;18.936;2022-08-20T13:23:56;14.75;;;6.60;;
40116;SDS011;25829;50.228;18.936;2022-08-20T13:27:10;15.25;;;7.38;;
40116;SDS011;25829;50.228;18.936;2022-08-20T13:30:16;12.32;;;6.22;;
40116;SDS011;25829;50.228;18.936;2022-08-20T13:33:19;13.23;;;6.88;;
40116;SDS011;25829;50.228;18.936;2022-08-20T13:36:20;11.15;;;6.22;;
40116;SDS011;25829;50.228;18.936;2022-08-20T13:39:21;10.75;;;6.20;;
40116;SDS011;25829;50.228;18.936;2022-08-20T13:42:22;9.50;;;5.80;;
40116;SDS011;25829;50.228;18.936;2022-08-20T13:45:23;14.15;;;5.68;;
40116;SDS011;25829;50.228;18.936;2022-08-20T13:48:24;11.50;;;6.25;;
40116;SDS011;25829;50.228;18.936;2022-08-20T13:51:25;12.35;;;5.88;;
40116;SDS011;25829;50.228;18.936;2022-08-20T13:54:26;12.57;;;5.28;;
40116;SDS011;25829;50.228;18.936;2022-08-20T13:57:26;9.68;;;5.78;;
40116;SDS011;25829;50.228;18.936;2022-08-20T14:00:28;9.35;;;5.82;;
40116;SDS011;25829;50.228;18.936;2022-08-20T14:03:30;9.10;;;6.18;;
40116;SDS011;25829;50.228;18.936;2022-08-20T14:06:33;14.05;;;6.50;;
40116;SDS011;25829;50.228;18.936;2022-08-20T14:09:36;12.23;;;6.15;;
40116;SDS011;25829;50.228;18.936;2022-08-20T14:12:40;9.65;;;6.50;;
40116;SDS011;25829;50.228;18.936;2022-08-20T14:15:41;9.80;;;6.10;;
40116;SDS011;25829;50.228;18.936;2022-08-20T14:18:42;14.07;;;7.35;;
40116;SDS011;25829;50.228;18.936;2022-08-20T14:21:43;7.90;;;7.00;;
40116;SDS011;25829;50.228;18.936;2022-08-20T14:24:44;13.20;;;7.30;;
40116;SDS011;25829;50.228;18.936;2022-08-20T14:27:45;8.35;;;6.15;;
40116;SDS011;25829;50.228;18.936;2022-08-20T14:30:46;12.23;;;6.85;;
40116;SDS011;25829;50.228;18.936;2022-08-20T14:33:48;9.45;;;6.28;;
40116;SDS011;25829;50.228;18.936;2022-08-20T14:36:50;8.98;;;6.72;;
40116;SDS011;25829;50.228;18.936;2022-08-20T14:39:52;10.43;;;6.90;;
40116;SDS011;25829;50.228;18.936;2022-08-20T14:42:56;9.90;;;6.60;;
40116;SDS011;25829;50.228;18.936;2022-08-20T14:45:56;11.05;;;7.00;;
40116;SDS011;25829;50.228;18.936;2022-08-20T14:48:57;10.60;;;6.75;;
40116;SDS011;25829;50.228;18.936;2022-08-20T14:51:58;12.85;;;6.63;;
40116;SDS011;25829;50.228;18.936;2022-08-20T14:54:59;10.65;;;6.70;;
40116;SDS011;25829;50.228;18.936;2022-08-20T14:58:00;8.35;;;6.03;;
40116;SDS011;25829;50.228;18.936;2022-08-20T15:01:01;13.07;;;6.57;;
40116;SDS011;25829;50.228;18.936;2022-08-20T15:04:01;12.20;;;6.35;;
40116;SDS011;25829;50.228;18.936;2022-08-20T15:07:03;10.13;;;6.60;;
40116;SDS011;25829;50.228;18.936;2022-08-20T15:10:07;10.95;;;6.60;;
40116;SDS011;25829;50.228;18.936;2022-08-20T15:13:11;12.35;;;6.78;;
40116;SDS011;25829;50.228;18.936;2022-08-20T15:16:11;10.18;;;5.97;;
40116;SDS011;25829;50.228;18.936;2022-08-20T15:19:12;10.13;;;6.40;;
40116;SDS011;25829;50.228;18.936;2022-08-20T15:22:13;10.88;;;6.20;;
40116;SDS011;25829;50.228;18.936;2022-08-20T15:25:15;7.93;;;5.57;;
40116;SDS011;25829;50.228;18.936;2022-08-20T15:28:18;8.20;;;5.97;;
40116;SDS011;25829;50.228;18.936;2022-08-20T15:31:19;8.13;;;5.45;;
40116;SDS011;25829;50.228;18.936;2022-08-20T15:34:19;8.18;;;5.35;;
40116;SDS011;25829;50.228;18.936;2022-08-20T15:37:21;9.63;;;4.75;;
40116;SDS011;25829;50.228;18.936;2022-08-20T15:40:23;8.07;;;5.03;;
40116;SDS011;25829;50.228;18.936;2022-08-20T15:43:27;8.80;;;5.35;;
40116;SDS011;25829;50.228;18.936;2022-08-20T15:46:29;6.80;;;5.13;;
40116;SDS011;25829;50.228;18.936;2022-08-20T15:49:29;7.25;;;5.07;;
40116;SDS011;25829;50.228;18.936;2022-08-20T15:52:32;7.22;;;5.57;;
40116;SDS011;25829;50.228;18.936;2022-08-20T15:55:38;9.10;;;5.38;;
40116;SDS011;25829;50.228;18.936;2022-08-20T16:09:32;11.05;;;7.40;;
40116;SDS011;25829;50.228;18.936;2022-08-20T16:12:59;11.35;;;7.72;;
40116;SDS011;25829;50.228;18.936;2022-08-20T16:16:03;6.40;;;5.30;;
40116;SDS011;25829;50.228;18.936;2022-08-20T16:19:12;8.15;;;5.78;;
40116;SDS011;25829;50.228;18.936;2022-08-20T16:22:19;10.68;;;6.90;;
40116;SDS011;25829;50.228;18.936;2022-08-20T16:25:21;10.98;;;6.97;;
40116;SDS011;25829;50.228;18.936;2022-08-20T16:28:48;12.63;;;6.28;;
40116;SDS011;25829;50.228;18.936;2022-08-20T16:32:09;11.43;;;6.47;;
40116;SDS011;25829;50.228;18.936;2022-08-20T16:35:33;8.50;;;6.32;;
40116;SDS011;25829;50.228;18.936;2022-08-20T16:38:51;10.65;;;6.40;;
40116;SDS011;25829;50.228;18.936;2022-08-20T16:41:57;7.28;;;5.50;;
40116;SDS011;25829;50.228;18.936;2022-08-20T16:44:59;6.78;;;4.88;;
40116;SDS011;25829;50.228;18.936;2022-08-20T16:48:03;8.45;;;4.80;;
40116;SDS011;25829;50.228;18.936;2022-08-20T16:51:16;8.13;;;5.07;;
40116;SDS011;25829;50.228;18.936;2022-08-20T16:54:22;5.85;;;5.05;;
40116;SDS011;25829;50.228;18.936;2022-08-20T16:57:27;12.07;;;5.65;;
40116;SDS011;25829;50.228;18.936;2022-08-20T17:00:29;8.27;;;5.60;;
40116;SDS011;25829;50.228;18.936;2022-08-20T17:03:35;9.57;;;5.72;;
40116;SDS011;25829;50.228;18.936;2022-08-20T17:06:42;10.30;;;5.47;;
40116;SDS011;25829;50.228;18.936;2022-08-20T17:09:46;7.85;;;5.55;;
40116;SDS011;25829;50.228;18.936;2022-08-20T17:13:30;8.15;;;5.95;;
40116;SDS011;25829;50.228;18.936;2022-08-20T17:19:28;12.35;;;5.97;;
40116;SDS011;25829;50.228;18.936;2022-08-20T17:22:30;8.57;;;6.45;;
40116;SDS011;25829;50.228;18.936;2022-08-20T17:25:41;8.02;;;6.25;;
40116;SDS011;25829;50.228;18.936;2022-08-20T17:28:49;10.38;;;7.28;;
40116;SDS011;25829;50.228;18.936;2022-08-20T17:31:55;7.90;;;5.90;;
40116;SDS011;25829;50.228;18.936;2022-08-20T17:34:59;9.85;;;6.68;;
40116;SDS011;25829;50.228;18.936;2022-08-20T17:38:01;11.20;;;6.78;;
40116;SDS011;25829;50.228;18.936;2022-08-20T17:41:07;13.18;;;6.20;;
40116;SDS011;25829;50.228;18.936;2022-08-20T17:44:25;9.18;;;6.43;;
40116;SDS011;25829;50.228;18.936;2022-08-20T17:47:32;8.00;;;6.32;;
40116;SDS011;25829;50.228;18.936;2022-08-20T17:50:37;8.85;;;7.07;;
40116;SDS011;25829;50.228;18.936;2022-08-20T17:53:39;8.95;;;7.20;;
40116;SDS011;25829;50.228;18.936;2022-08-20T17:56:44;11.80;;;7.30;;
40116;SDS011;25829;50.228;18.936;2022-08-20T17:59:50;10.43;;;6.60;;
40116;SDS011;25829;50.228;18.936;2022-08-20T18:02:59;8.82;;;7.90;;
40116;SDS011;25829;50.228;18.936;2022-08-20T18:06:16;9.77;;;6.97;;
40116;SDS011;25829;50.228;18.936;2022-08-20T18:13:08;12.50;;;7.80;;
40116;SDS011;25829;50.228;18.936;2022-08-20T18:17:02;10.85;;;8.07;;
40116;SDS011;25829;50.228;18.936;2022-08-20T18:23:37;12.00;;;7.95;;